sensor_id;sensor_type;location;lat;lon;timestamp;pressure;altitude;pressure_sealevel;temperature
71640;BMP280;60912;48.968;10.124;2023-05-16T00:00:15;96267.16;;;10.48
71640;BMP280;60912;48.968;10.124;2023-05-16T00:02:43;96262.94;;;10.62
71640;BMP280;60912;48.968;10.124;2023-05-16T00:05:09;96259.63;;;10.56
71640;BMP280;60912;48.968;10.124;2023-05-16T00:07:45;96264.00;;;10.44
71640;BMP280;60912;48.968;10.124;2023-05-16T00:10:11;96262.53;;;10.43
71640;BMP280;60912;48.968;10.124;2023-05-16T00:12:38;96257.00;;;10.43
71640;BMP280;60912;48.968;10.124;2023-05-16T00:15:14;96250.03;;;10.42
71640;BMP280;60912;48.968;10.124;2023-05-16T00:17:42;96252.44;;;10.53
71640;BMP280;60912;48.968;10.124;2023-05-16T00:20:13;96257.41;;;10.54
71640;BMP280;60912;48.968;10.124;2023-05-16T00:22:44;96244.19;;;10.45
71640;BMP280;60912;48.968;10.124;2023-05-16T00:25:12;96258.84;;;10.40
71640;BMP280;60912;48.968;10.124;2023-05-16T00:27:38;96245.63;;;10.39
71640;BMP280;60912;48.968;10.124;2023-05-16T00:30:07;96250.22;;;10.44
71640;BMP280;60912;48.968;10.124;2023-05-16T00:32:35;96246.38;;;10.47
71640;BMP280;60912;48.968;10.124;2023-05-16T00:35:07;96248.91;;;10.30
71640;BMP280;60912;48.968;10.124;2023-05-16T00:37:38;96243.94;;;10.13
71640;BMP280;60912;48.968;10.124;2023-05-16T00:40:04;96251.63;;;9.99
71640;BMP280;60912;48.968;10.124;2023-05-16T00:42:40;96250.28;;;9.93
71640;BMP280;60912;48.968;10.124;2023-05-16T00:45:06;96249.75;;;9.94
71640;BMP280;60912;48.968;10.124;2023-05-16T00:47:43;96247.41;;;9.98
71640;BMP280;60912;48.968;10.124;2023-05-16T00:50:09;96245.94;;;9.97
71640;BMP280;60912;48.968;10.124;2023-05-16T00:52:38;96242.63;;;10.06
71640;BMP280;60912;48.968;10.124;2023-05-16T00:55:04;96234.38;;;10.06
71640;BMP280;60912;48.968;10.124;2023-05-16T00:57:30;96237.13;;;9.99
71640;BMP280;60912;48.968;10.124;2023-05-16T01:00:03;96236.41;;;9.98
71640;BMP280;60912;48.968;10.124;2023-05-16T01:02:29;96247.16;;;9.89
71640;BMP280;60912;48.968;10.124;2023-05-16T01:04:58;96248.94;;;9.71
71640;BMP280;60912;48.968;10.124;2023-05-16T01:07:34;96238.78;;;9.58
71640;BMP280;60912;48.968;10.124;2023-05-16T01:10:16;96237.53;;;9.67
71640;BMP280;60912;48.968;10.124;2023-05-16T01:13:05;96237.75;;;9.69
71640;BMP280;60912;48.968;10.124;2023-05-16T01:16:02;96232.94;;;9.62
71640;BMP280;60912;48.968;10.124;2023-05-16T01:18:43;96231.84;;;9.65
71640;BMP280;60912;48.968;10.124;2023-05-16T01:21:15;96248.75;;;9.76
71640;BMP280;60912;48.968;10.124;2023-05-16T01:24:03;96239.22;;;9.70
71640;BMP280;60912;48.968;10.124;2023-05-16T01:26:37;96239.00;;;9.68
71640;BMP280;60912;48.968;10.124;2023-05-16T01:29:07;96231.84;;;9.65
71640;BMP280;60912;48.968;10.124;2023-05-16T01:31:32;96241.69;;;9.53
71640;BMP280;60912;48.968;10.124;2023-05-16T01:33:58;96235.81;;;9.49
71640;BMP280;60912;48.968;10.124;2023-05-16T01:36:30;96243.34;;;9.56
71640;BMP280;60912;48.968;10.124;2023-05-16T01:44:27;96232.94;;;9.62
71640;BMP280;60912;48.968;10.124;2023-05-16T01:50:07;96238.06;;;9.58
71640;BMP280;60912;48.968;10.124;2023-05-16T01:52:41;96234.91;;;9.46
71640;BMP280;60912;48.968;10.124;2023-05-16T01:55:14;96227.00;;;9.43
71640;BMP280;60912;48.968;10.124;2023-05-16T01:57:51;96223.09;;;9.38
71640;BMP280;60912;48.968;10.124;2023-05-16T02:00:17;96227.00;;;9.43
71640;BMP280;60912;48.968;10.124;2023-05-16T02:02:43;96227.38;;;9.47
71640;BMP280;60912;48.968;10.124;2023-05-16T02:05:11;96226.66;;;9.54
71640;BMP280;60912;48.968;10.124;2023-05-16T02:07:40;96231.06;;;9.57
71640;BMP280;60912;48.968;10.124;2023-05-16T02:10:09;96229.75;;;9.43
71640;BMP280;60912;48.968;10.124;2023-05-16T02:12:35;96241.97;;;9.34
71640;BMP280;60912;48.968;10.124;2023-05-16T02:15:04;96239.97;;;9.34
71640;BMP280;60912;48.968;10.124;2023-05-16T02:17:36;96239.78;;;9.32
71640;BMP280;60912;48.968;10.124;2023-05-16T02:20:04;96251.50;;;9.33
71640;BMP280;60912;48.968;10.124;2023-05-16T02:22:34;96240.84;;;9.29
71640;BMP280;60912;48.968;10.124;2023-05-16T02:25:16;96231.66;;;9.27
71640;BMP280;60912;48.968;10.124;2023-05-16T02:27:54;96242.06;;;9.21
71640;BMP280;60912;48.968;10.124;2023-05-16T02:30:25;96242.50;;;9.04
71640;BMP280;60912;48.968;10.124;2023-05-16T02:33:07;96241.03;;;9.03
71640;BMP280;60912;48.968;10.124;2023-05-16T02:35:40;96238.09;;;9.01
71640;BMP280;60912;48.968;10.124;2023-05-16T02:38:21;96245.75;;;8.95
71640;BMP280;60912;48.968;10.124;2023-05-16T02:40:49;96254.94;;;8.98
71640;BMP280;60912;48.968;10.124;2023-05-16T02:43:21;96255.19;;;8.86
71640;BMP280;60912;48.968;10.124;2023-05-16T02:45:46;96254.28;;;8.84
71640;BMP280;60912;48.968;10.124;2023-05-16T02:48:12;96247.53;;;8.85
71640;BMP280;60912;48.968;10.124;2023-05-16T02:50:38;96242.56;;;8.83
71640;BMP280;60912;48.968;10.124;2023-05-16T02:53:04;96251.94;;;8.88
71640;BMP280;60912;48.968;10.124;2023-05-16T02:55:30;96260.03;;;8.93
71640;BMP280;60912;48.968;10.124;2023-05-16T02:58:01;96248.09;;;8.91
71640;BMP280;60912;48.968;10.124;2023-05-16T03:00:29;96249.91;;;8.88
71640;BMP280;60912;48.968;10.124;2023-05-16T03:02:54;96250.84;;;8.91
71640;BMP280;60912;48.968;10.124;2023-05-16T03:05:20;96250.56;;;9.02
71640;BMP280;60912;48.968;10.124;2023-05-16T03:07:45;96253.78;;;8.93
71640;BMP280;60912;48.968;10.124;2023-05-16T03:10:11;96261.78;;;8.83
71640;BMP280;60912;48.968;10.124;2023-05-16T03:12:39;96255.81;;;8.72
71640;BMP280;60912;48.968;10.124;2023-05-16T03:15:05;96254.00;;;8.74
71640;BMP280;60912;48.968;10.124;2023-05-16T03:17:33;96255.81;;;8.72
71640;BMP280;60912;48.968;10.124;2023-05-16T03:19:59;96254.56;;;8.73
71640;BMP280;60912;48.968;10.124;2023-05-16T03:22:32;96259.84;;;8.71
71640;BMP280;60912;48.968;10.124;2023-05-16T03:25:00;96255.81;;;8.72
71640;BMP280;60912;48.968;10.124;2023-05-16T03:27:25;96271.91;;;8.68
71640;BMP280;60912;48.968;10.124;2023-05-16T03:29:57;96267.16;;;8.68
71640;BMP280;60912;48.968;10.124;2023-05-16T03:32:25;96268.38;;;8.80
71640;BMP280;60912;48.968;10.124;2023-05-16T03:34:51;96270.84;;;8.71
71640;BMP280;60912;48.968;10.124;2023-05-16T03:37:16;96271.19;;;8.67
71640;BMP280;60912;48.968;10.124;2023-05-16T03:42:20;96269.69;;;8.66
71640;BMP280;60912;48.968;10.124;2023-05-16T03:44:48;96260.66;;;8.79
71640;BMP280;60912;48.968;10.124;2023-05-16T03:47:16;96253.47;;;8.97
71640;BMP280;60912;48.968;10.124;2023-05-16T03:49:42;96254.25;;;9.05
71640;BMP280;60912;48.968;10.124;2023-05-16T03:52:08;96253.50;;;9.04
71640;BMP280;60912;48.968;10.124;2023-05-16T03:54:36;96244.06;;;8.92
71640;BMP280;60912;48.968;10.124;2023-05-16T03:57:02;96256.97;;;8.97
71640;BMP280;60912;48.968;10.124;2023-05-16T03:59:28;96256.25;;;9.04
71640;BMP280;60912;48.968;10.124;2023-05-16T04:01:56;96256.19;;;9.17
71640;BMP280;60912;48.968;10.124;2023-05-16T04:04:42;96262.81;;;9.22
71640;BMP280;60912;48.968;10.124;2023-05-16T04:07:09;96250.97;;;9.34
71640;BMP280;60912;48.968;10.124;2023-05-16T04:09:43;96262.22;;;9.52
71640;BMP280;60912;48.968;10.124;2023-05-16T04:12:08;96255.69;;;9.62
71640;BMP280;60912;48.968;10.124;2023-05-16T04:14:34;96252.47;;;9.79
71640;BMP280;60912;48.968;10.124;2023-05-16T04:17:03;96267.75;;;9.95
71640;BMP280;60912;48.968;10.124;2023-05-16T04:19:28;96254.19;;;10.05
71640;BMP280;60912;48.968;10.124;2023-05-16T04:21:56;96270.91;;;9.99
71640;BMP280;60912;48.968;10.124;2023-05-16T04:24:22;96258.91;;;9.89
71640;BMP280;60912;48.968;10.124;2023-05-16T04:26:53;96259.56;;;9.74
71640;BMP280;60912;48.968;10.124;2023-05-16T04:29:19;96264.72;;;9.70
71640;BMP280;60912;48.968;10.124;2023-05-16T04:31:45;96261.59;;;9.74
71640;BMP280;60912;48.968;10.124;2023-05-16T04:34:11;96269.16;;;9.81
71640;BMP280;60912;48.968;10.124;2023-05-16T04:36:38;96273.00;;;9.78
71640;BMP280;60912;48.968;10.124;2023-05-16T04:39:04;96277.47;;;9.96
71640;BMP280;60912;48.968;10.124;2023-05-16T04:41:33;96277.53;;;10.27
71640;BMP280;60912;48.968;10.124;2023-05-16T04:44:07;96271.91;;;10.55
71640;BMP280;60912;48.968;10.124;2023-05-16T04:46:35;96271.59;;;10.74
71640;BMP280;60912;48.968;10.124;2023-05-16T04:49:06;96266.41;;;10.70
71640;BMP280;60912;48.968;10.124;2023-05-16T04:51:39;96273.75;;;10.83
71640;BMP280;60912;48.968;10.124;2023-05-16T04:54:10;96280.16;;;11.00
71640;BMP280;60912;48.968;10.124;2023-05-16T04:57:05;96283.09;;;11.18
71640;BMP280;60912;48.968;10.124;2023-05-16T04:59:43;96270.56;;;11.32
71640;BMP280;60912;48.968;10.124;2023-05-16T05:02:08;96269.47;;;11.35
71640;BMP280;60912;48.968;10.124;2023-05-16T05:04:34;96272.03;;;11.40
71640;BMP280;60912;48.968;10.124;2023-05-16T05:07:09;96273.81;;;11.61
71640;BMP280;60912;48.968;10.124;2023-05-16T05:09:34;96280.06;;;12.09
71640;BMP280;60912;48.968;10.124;2023-05-16T05:12:00;96285.31;;;12.96
71640;BMP280;60912;48.968;10.124;2023-05-16T05:14:25;96278.34;;;15.19
71640;BMP280;60912;48.968;10.124;2023-05-16T05:17:10;96283.94;;;17.42
71640;BMP280;60912;48.968;10.124;2023-05-16T05:19:36;96282.50;;;20.05
71640;BMP280;60912;48.968;10.124;2023-05-16T05:22:04;96282.69;;;21.33
71640;BMP280;60912;48.968;10.124;2023-05-16T05:24:39;96287.44;;;21.60
71640;BMP280;60912;48.968;10.124;2023-05-16T05:27:05;96285.84;;;22.18
71640;BMP280;60912;48.968;10.124;2023-05-16T05:29:30;96280.69;;;21.36
71640;BMP280;60912;48.968;10.124;2023-05-16T05:31:56;96288.41;;;20.93
71640;BMP280;60912;48.968;10.124;2023-05-16T05:34:24;96292.69;;;20.39
71640;BMP280;60912;48.968;10.124;2023-05-16T05:36:49;96286.34;;;19.22
71640;BMP280;60912;48.968;10.124;2023-05-16T05:39:20;96292.25;;;18.43
71640;BMP280;60912;48.968;10.124;2023-05-16T05:41:49;96290.63;;;18.05
71640;BMP280;60912;48.968;10.124;2023-05-16T05:44:17;96284.47;;;18.18
71640;BMP280;60912;48.968;10.124;2023-05-16T05:46:43;96287.91;;;17.84
71640;BMP280;60912;48.968;10.124;2023-05-16T05:49:09;96292.78;;;17.95
71640;BMP280;60912;48.968;10.124;2023-05-16T05:51:40;96292.00;;;17.71
71640;BMP280;60912;48.968;10.124;2023-05-16T05:54:06;96295.38;;;17.69
71640;BMP280;60912;48.968;10.124;2023-05-16T05:56:42;96301.69;;;17.70
71640;BMP280;60912;48.968;10.124;2023-05-16T05:59:08;96295.47;;;17.27
71640;BMP280;60912;48.968;10.124;2023-05-16T06:01:33;96297.28;;;17.01
71640;BMP280;60912;48.968;10.124;2023-05-16T06:04:25;96302.66;;;16.88
71640;BMP280;60912;48.968;10.124;2023-05-16T06:06:56;96297.09;;;17.09
71640;BMP280;60912;48.968;10.124;2023-05-16T06:09:22;96294.94;;;17.19
71640;BMP280;60912;48.968;10.124;2023-05-16T06:11:54;96307.06;;;16.81
71640;BMP280;60912;48.968;10.124;2023-05-16T06:14:20;96296.59;;;16.39
71640;BMP280;60912;48.968;10.124;2023-05-16T06:16:45;96300.69;;;16.38
71640;BMP280;60912;48.968;10.124;2023-05-16T06:21:41;96288.50;;;16.53
71640;BMP280;60912;48.968;10.124;2023-05-16T06:24:09;96290.78;;;16.87
71640;BMP280;60912;48.968;10.124;2023-05-16T06:26:36;96285.13;;;16.97
71640;BMP280;60912;48.968;10.124;2023-05-16T06:29:02;96292.84;;;16.87
71640;BMP280;60912;48.968;10.124;2023-05-16T06:31:49;96302.97;;;17.57
71640;BMP280;60912;48.968;10.124;2023-05-16T06:34:15;96305.94;;;18.27
71640;BMP280;60912;48.968;10.124;2023-05-16T06:36:51;96310.31;;;18.18
71640;BMP280;60912;48.968;10.124;2023-05-16T06:39:17;96308.09;;;18.17
71640;BMP280;60912;48.968;10.124;2023-05-16T06:41:43;96310.31;;;18.18
71640;BMP280;60912;48.968;10.124;2023-05-16T06:44:14;96309.38;;;17.81
71640;BMP280;60912;48.968;10.124;2023-05-16T06:46:48;96315.47;;;17.56
71640;BMP280;60912;48.968;10.124;2023-05-16T06:49:25;96314.00;;;17.55
71640;BMP280;60912;48.968;10.124;2023-05-16T06:51:51;96314.00;;;16.71
71640;BMP280;60912;48.968;10.124;2023-05-16T06:54:26;96305.34;;;16.45
71640;BMP280;60912;48.968;10.124;2023-05-16T06:56:56;96312.88;;;16.24
71640;BMP280;60912;48.968;10.124;2023-05-16T06:59:44;96314.81;;;16.21
71640;BMP280;60912;48.968;10.124;2023-05-16T07:02:18;96317.88;;;16.25
71640;BMP280;60912;48.968;10.124;2023-05-16T07:04:57;96322.25;;;16.18
71640;BMP280;60912;48.968;10.124;2023-05-16T07:07:34;96326.09;;;16.13
71640;BMP280;60912;48.968;10.124;2023-05-16T07:10:08;96325.47;;;16.25
71640;BMP280;60912;48.968;10.124;2023-05-16T07:12:40;96325.88;;;16.31
71640;BMP280;60912;48.968;10.124;2023-05-16T07:15:06;96314.88;;;16.33
71640;BMP280;60912;48.968;10.124;2023-05-16T07:17:35;96319.00;;;16.32
71640;BMP280;60912;48.968;10.124;2023-05-16T07:20:01;96327.88;;;16.49
71640;BMP280;60912;48.968;10.124;2023-05-16T07:22:35;96330.97;;;16.53
71640;BMP280;60912;48.968;10.124;2023-05-16T07:25:01;96332.19;;;16.31
71640;BMP280;60912;48.968;10.124;2023-05-16T07:27:27;96326.50;;;16.29
71640;BMP280;60912;48.968;10.124;2023-05-16T07:29:53;96333.78;;;16.34
71640;BMP280;60912;48.968;10.124;2023-05-16T07:32:21;96327.13;;;16.08
71640;BMP280;60912;48.968;10.124;2023-05-16T07:34:47;96320.56;;;16.04
71640;BMP280;60912;48.968;10.124;2023-05-16T07:37:12;96327.00;;;15.97
71640;BMP280;60912;48.968;10.124;2023-05-16T07:39:43;96322.50;;;15.73
71640;BMP280;60912;48.968;10.124;2023-05-16T07:42:11;96326.16;;;15.65
71640;BMP280;60912;48.968;10.124;2023-05-16T07:44:45;96330.84;;;15.63
71640;BMP280;60912;48.968;10.124;2023-05-16T07:47:10;96329.34;;;15.81
71640;BMP280;60912;48.968;10.124;2023-05-16T07:49:36;96336.25;;;15.90
71640;BMP280;60912;48.968;10.124;2023-05-16T07:52:02;96322.28;;;16.09
71640;BMP280;60912;48.968;10.124;2023-05-16T07:54:28;96330.38;;;16.05
71640;BMP280;60912;48.968;10.124;2023-05-16T07:57:28;96333.00;;;15.93
71640;BMP280;60912;48.968;10.124;2023-05-16T08:00:21;96344.97;;;16.15
71640;BMP280;60912;48.968;10.124;2023-05-16T08:02:54;96338.56;;;16.03
71640;BMP280;60912;48.968;10.124;2023-05-16T08:05:20;96344.50;;;16.18
71640;BMP280;60912;48.968;10.124;2023-05-16T08:07:50;96343.47;;;16.64
71640;BMP280;60912;48.968;10.124;2023-05-16T08:10:16;96341.56;;;16.66
71640;BMP280;60912;48.968;10.124;2023-05-16T08:12:45;96348.91;;;16.62
71640;BMP280;60912;48.968;10.124;2023-05-16T08:15:15;96338.72;;;16.45
71640;BMP280;60912;48.968;10.124;2023-05-16T08:17:41;96343.09;;;16.48
71640;BMP280;60912;48.968;10.124;2023-05-16T08:20:16;96350.97;;;16.02
71640;BMP280;60912;48.968;10.124;2023-05-16T08:22:42;96350.88;;;15.61
71640;BMP280;60912;48.968;10.124;2023-05-16T08:25:07;96351.44;;;15.60
71640;BMP280;60912;48.968;10.124;2023-05-16T08:27:48;96355.41;;;15.57
71640;BMP280;60912;48.968;10.124;2023-05-16T08:30:14;96350.69;;;15.69
71640;BMP280;60912;48.968;10.124;2023-05-16T08:32:44;96356.25;;;15.69
71640;BMP280;60912;48.968;10.124;2023-05-16T08:35:10;96349.13;;;15.76
71640;BMP280;60912;48.968;10.124;2023-05-16T08:40:30;96356.88;;;15.67
71640;BMP280;60912;48.968;10.124;2023-05-16T08:42:56;96358.63;;;15.92
71640;BMP280;60912;48.968;10.124;2023-05-16T08:45:28;96358.44;;;16.09
71640;BMP280;60912;48.968;10.124;2023-05-16T08:47:59;96361.97;;;16.00
71640;BMP280;60912;48.968;10.124;2023-05-16T08:50:27;96367.22;;;16.05
71640;BMP280;60912;48.968;10.124;2023-05-16T08:53:31;96373.19;;;16.11
71640;BMP280;60912;48.968;10.124;2023-05-16T08:56:11;96360.44;;;16.18
71640;BMP280;60912;48.968;10.124;2023-05-16T08:58:40;96359.63;;;16.06
71640;BMP280;60912;48.968;10.124;2023-05-16T09:01:29;96371.84;;;16.41
71640;BMP280;60912;48.968;10.124;2023-05-16T09:03:57;96377.66;;;16.45
71640;BMP280;60912;48.968;10.124;2023-05-16T09:06:36;96385.22;;;16.64
71640;BMP280;60912;48.968;10.124;2023-05-16T09:09:02;96380.13;;;16.51
71640;BMP280;60912;48.968;10.124;2023-05-16T09:11:36;96379.47;;;16.72
71640;BMP280;60912;48.968;10.124;2023-05-16T09:14:08;96377.69;;;16.76
71640;BMP280;60912;48.968;10.124;2023-05-16T09:17:08;96374.75;;;16.74
71640;BMP280;60912;48.968;10.124;2023-05-16T09:19:46;96366.44;;;17.26
71640;BMP280;60912;48.968;10.124;2023-05-16T09:22:38;96368.56;;;17.16
71640;BMP280;60912;48.968;10.124;2023-05-16T09:28:15;96368.56;;;17.16
71640;BMP280;60912;48.968;10.124;2023-05-16T09:30:45;96394.06;;;16.82
71640;BMP280;60912;48.968;10.124;2023-05-16T09:33:19;96389.50;;;16.55
71640;BMP280;60912;48.968;10.124;2023-05-16T09:38:46;96387.50;;;16.37
71640;BMP280;60912;48.968;10.124;2023-05-16T09:41:21;96390.78;;;15.95
71640;BMP280;60912;48.968;10.124;2023-05-16T09:43:47;96399.38;;;16.18
71640;BMP280;60912;48.968;10.124;2023-05-16T09:46:16;96391.84;;;15.90
71640;BMP280;60912;48.968;10.124;2023-05-16T09:48:50;96385.63;;;16.20
71640;BMP280;60912;48.968;10.124;2023-05-16T09:51:26;96394.19;;;16.43
71640;BMP280;60912;48.968;10.124;2023-05-16T09:53:54;96399.44;;;16.68
71640;BMP280;60912;48.968;10.124;2023-05-16T09:56:33;96399.56;;;16.60
71640;BMP280;60912;48.968;10.124;2023-05-16T09:58:59;96394.84;;;16.23
71640;BMP280;60912;48.968;10.124;2023-05-16T10:01:28;96407.28;;;16.12
71640;BMP280;60912;48.968;10.124;2023-05-16T10:03:53;96403.34;;;15.96
71640;BMP280;60912;48.968;10.124;2023-05-16T10:06:19;96392.22;;;16.05
71640;BMP280;60912;48.968;10.124;2023-05-16T10:08:46;96396.94;;;16.03
71640;BMP280;60912;48.968;10.124;2023-05-16T10:11:17;96400.25;;;16.21
71640;BMP280;60912;48.968;10.124;2023-05-16T10:13:44;96403.22;;;15.94
71640;BMP280;60912;48.968;10.124;2023-05-16T10:16:29;96412.28;;;16.04
71640;BMP280;60912;48.968;10.124;2023-05-16T10:18:59;96399.25;;;15.97
71640;BMP280;60912;48.968;10.124;2023-05-16T10:21:34;96393.22;;;16.29
71640;BMP280;60912;48.968;10.124;2023-05-16T10:24:02;96390.88;;;16.35
71640;BMP280;60912;48.968;10.124;2023-05-16T10:26:46;96394.19;;;16.53
71640;BMP280;60912;48.968;10.124;2023-05-16T10:29:23;96400.19;;;16.49
71640;BMP280;60912;48.968;10.124;2023-05-16T10:32:00;96398.69;;;16.67
71640;BMP280;60912;48.968;10.124;2023-05-16T10:34:28;96394.22;;;16.84
71640;BMP280;60912;48.968;10.124;2023-05-16T10:37:00;96384.94;;;16.91
71640;BMP280;60912;48.968;10.124;2023-05-16T10:39:34;96384.47;;;17.04
71640;BMP280;60912;48.968;10.124;2023-05-16T10:42:07;96387.91;;;16.52
71640;BMP280;60912;48.968;10.124;2023-05-16T10:44:38;96390.66;;;16.62
71640;BMP280;60912;48.968;10.124;2023-05-16T10:47:04;96391.84;;;16.90
71640;BMP280;60912;48.968;10.124;2023-05-16T10:49:42;96383.84;;;17.05
71640;BMP280;60912;48.968;10.124;2023-05-16T10:52:20;96386.72;;;17.17
71640;BMP280;60912;48.968;10.124;2023-05-16T10:55:10;96386.44;;;17.13
71640;BMP280;60912;48.968;10.124;2023-05-16T10:57:55;96396.69;;;17.62
71640;BMP280;60912;48.968;10.124;2023-05-16T11:00:30;96394.44;;;17.82
71640;BMP280;60912;48.968;10.124;2023-05-16T11:03:04;96382.88;;;17.97
71640;BMP280;60912;48.968;10.124;2023-05-16T11:05:30;96390.16;;;18.58
71640;BMP280;60912;48.968;10.124;2023-05-16T11:08:13;96378.25;;;18.69
71640;BMP280;60912;48.968;10.124;2023-05-16T11:10:45;96388.91;;;18.38
71640;BMP280;60912;48.968;10.124;2023-05-16T11:13:10;96392.44;;;18.74
71640;BMP280;60912;48.968;10.124;2023-05-16T11:15:43;96384.56;;;18.82
71640;BMP280;60912;48.968;10.124;2023-05-16T11:18:16;96392.91;;;18.35
71640;BMP280;60912;48.968;10.124;2023-05-16T11:20:54;96394.94;;;18.23
71640;BMP280;60912;48.968;10.124;2023-05-16T11:27:01;96393.25;;;18.18
71640;BMP280;60912;48.968;10.124;2023-05-16T11:29:30;96383.03;;;18.11
71640;BMP280;60912;48.968;10.124;2023-05-16T11:32:06;96384.22;;;18.08
71640;BMP280;60912;48.968;10.124;2023-05-16T11:34:34;96374.50;;;18.53
71640;BMP280;60912;48.968;10.124;2023-05-16T11:37:09;96397.28;;;18.38
71640;BMP280;60912;48.968;10.124;2023-05-16T11:39:37;96378.75;;;18.43
71640;BMP280;60912;48.968;10.124;2023-05-16T11:42:03;96389.66;;;18.50
71640;BMP280;60912;48.968;10.124;2023-05-16T11:44:31;96385.94;;;18.13
71640;BMP280;60912;48.968;10.124;2023-05-16T11:47:17;96395.13;;;18.04
71640;BMP280;60912;48.968;10.124;2023-05-16T11:49:43;96401.03;;;17.44
71640;BMP280;60912;48.968;10.124;2023-05-16T11:52:08;96402.75;;;17.49
71640;BMP280;60912;48.968;10.124;2023-05-16T11:54:45;96407.69;;;17.39
71640;BMP280;60912;48.968;10.124;2023-05-16T11:57:14;96400.41;;;17.34
71640;BMP280;60912;48.968;10.124;2023-05-16T11:59:52;96403.03;;;17.32
71640;BMP280;60912;48.968;10.124;2023-05-16T12:02:27;96400.31;;;17.65
71640;BMP280;60912;48.968;10.124;2023-05-16T12:05:08;96410.72;;;17.64
71640;BMP280;60912;48.968;10.124;2023-05-16T12:07:46;96422.41;;;17.73
71640;BMP280;60912;48.968;10.124;2023-05-16T12:10:15;96418.63;;;17.47
71640;BMP280;60912;48.968;10.124;2023-05-16T12:12:49;96406.25;;;17.38
71640;BMP280;60912;48.968;10.124;2023-05-16T12:15:21;96415.44;;;17.41
71640;BMP280;60912;48.968;10.124;2023-05-16T12:17:50;96423.75;;;17.29
71640;BMP280;60912;48.968;10.124;2023-05-16T12:20:22;96428.25;;;17.34
71640;BMP280;60912;48.968;10.124;2023-05-16T12:22:51;96422.78;;;17.15
71640;BMP280;60912;48.968;10.124;2023-05-16T12:25:30;96418.88;;;17.30
71640;BMP280;60912;48.968;10.124;2023-05-16T12:28:02;96417.50;;;17.61
71640;BMP280;60912;48.968;10.124;2023-05-16T12:30:39;96418.66;;;17.68
71640;BMP280;60912;48.968;10.124;2023-05-16T12:33:15;96424.50;;;18.16
71640;BMP280;60912;48.968;10.124;2023-05-16T12:35:43;96425.59;;;18.11
71640;BMP280;60912;48.968;10.124;2023-05-16T12:38:10;96421.03;;;18.16
71640;BMP280;60912;48.968;10.124;2023-05-16T12:40:40;96421.38;;;18.22
71640;BMP280;60912;48.968;10.124;2023-05-16T12:43:13;96420.13;;;18.13
71640;BMP280;60912;48.968;10.124;2023-05-16T12:45:42;96412.91;;;18.32
71640;BMP280;60912;48.968;10.124;2023-05-16T12:48:23;96410.06;;;18.64
71640;BMP280;60912;48.968;10.124;2023-05-16T12:51:10;96401.81;;;18.90
71640;BMP280;60912;48.968;10.124;2023-05-16T12:53:45;96405.06;;;18.86
71640;BMP280;60912;48.968;10.124;2023-05-16T12:56:20;96404.59;;;18.90
71640;BMP280;60912;48.968;10.124;2023-05-16T13:01:30;96423.53;;;18.12
71640;BMP280;60912;48.968;10.124;2023-05-16T13:04:09;96414.56;;;17.81
71640;BMP280;60912;48.968;10.124;2023-05-16T13:06:40;96422.53;;;17.32
71640;BMP280;60912;48.968;10.124;2023-05-16T13:09:16;96421.84;;;17.22
71640;BMP280;60912;48.968;10.124;2023-05-16T13:11:52;96429.34;;;17.20
71640;BMP280;60912;48.968;10.124;2023-05-16T13:14:24;96428.09;;;17.75
71640;BMP280;60912;48.968;10.124;2023-05-16T13:16:55;96427.91;;;18.15
71640;BMP280;60912;48.968;10.124;2023-05-16T13:19:29;96426.03;;;18.08
71640;BMP280;60912;48.968;10.124;2023-05-16T13:21:56;96432.06;;;18.26
71640;BMP280;60912;48.968;10.124;2023-05-16T13:24:31;96436.75;;;18.67
71640;BMP280;60912;48.968;10.124;2023-05-16T13:27:08;96432.63;;;18.57
71640;BMP280;60912;48.968;10.124;2023-05-16T13:29:36;96427.50;;;18.42
71640;BMP280;60912;48.968;10.124;2023-05-16T13:32:05;96431.13;;;18.00
71640;BMP280;60912;48.968;10.124;2023-05-16T13:34:39;96428.41;;;18.11
71640;BMP280;60912;48.968;10.124;2023-05-16T13:37:08;96424.47;;;17.51
71640;BMP280;60912;48.968;10.124;2023-05-16T13:39:49;96422.94;;;17.81
71640;BMP280;60912;48.968;10.124;2023-05-16T13:42:24;96438.59;;;17.86
71640;BMP280;60912;48.968;10.124;2023-05-16T13:45:06;96441.03;;;17.70
71640;BMP280;60912;48.968;10.124;2023-05-16T13:47:46;96437.59;;;17.60
71640;BMP280;60912;48.968;10.124;2023-05-16T13:50:54;96450.34;;;17.11
71640;BMP280;60912;48.968;10.124;2023-05-16T13:53:20;96434.09;;;17.07
71640;BMP280;60912;48.968;10.124;2023-05-16T13:55:54;96454.09;;;17.25
71640;BMP280;60912;48.968;10.124;2023-05-16T13:58:20;96448.16;;;17.09
71640;BMP280;60912;48.968;10.124;2023-05-16T14:00:52;96456.53;;;17.00
71640;BMP280;60912;48.968;10.124;2023-05-16T14:03:23;96449.31;;;16.76
71640;BMP280;60912;48.968;10.124;2023-05-16T14:06:16;96457.53;;;16.74
71640;BMP280;60912;48.968;10.124;2023-05-16T14:08:41;96454.50;;;16.50
71640;BMP280;60912;48.968;10.124;2023-05-16T14:11:19;96462.13;;;16.50
71640;BMP280;60912;48.968;10.124;2023-05-16T14:14:08;96475.91;;;16.29
71640;BMP280;60912;48.968;10.124;2023-05-16T14:16:49;96481.94;;;16.15
71640;BMP280;60912;48.968;10.124;2023-05-16T14:19:18;96487.59;;;15.79
71640;BMP280;60912;48.968;10.124;2023-05-16T14:21:53;96488.94;;;15.88
71640;BMP280;60912;48.968;10.124;2023-05-16T14:24:22;96495.63;;;15.85
71640;BMP280;60912;48.968;10.124;2023-05-16T14:26:51;96486.84;;;15.69
71640;BMP280;60912;48.968;10.124;2023-05-16T14:29:31;96491.13;;;15.89
71640;BMP280;60912;48.968;10.124;2023-05-16T14:32:05;96493.63;;;15.95
71640;BMP280;60912;48.968;10.124;2023-05-16T14:38:26;96493.91;;;16.18
71640;BMP280;60912;48.968;10.124;2023-05-16T14:41:18;96495.22;;;16.07
71640;BMP280;60912;48.968;10.124;2023-05-16T14:43:51;96502.81;;;16.07
71640;BMP280;60912;48.968;10.124;2023-05-16T14:46:18;96497.44;;;15.90
71640;BMP280;60912;48.968;10.124;2023-05-16T14:48:51;96497.22;;;15.68
71640;BMP280;60912;48.968;10.124;2023-05-16T14:51:28;96503.75;;;15.44
71640;BMP280;60912;48.968;10.124;2023-05-16T14:54:06;96505.91;;;15.36
71640;BMP280;60912;48.968;10.124;2023-05-16T14:56:37;96503.88;;;15.46